Mostaganem, Algeria
Current Conditions -  °F | °C
As of 4:30 AM on Thursday 29 Jan 2015 (Local Time) from DAOO Reporting Station
Broken Clouds Broken Clouds  
Wind Chill: 50°   Ceiling: 2000
Heat Index: 50°   Visibility: 6mi
Dew Point: 48°   Wind: 7mph
Humidity: 94%   Direction: 140°SE
Pressure: 30.15"   Gusts: NA
Location:  35.94°N, 0.09°E
Report Text: DAOO 290330Z 14006KT 9999 BKN020 10/09 Q1021
Loading
Personal Weather Stations






























Interactive Weather Map New forecast layout! Learn more

10-Day Weather Forecast

Advertisements
Track Severe Weather on mobile